sensor_id;sensor_type;location;lat;lon;timestamp;P1;durP1;ratioP1;P2;durP2;ratioP2
51010;SDS011;37038;50.182;8.624;2023-06-04T00:01:04;7.22;;;2.28;;
51010;SDS011;37038;50.182;8.624;2023-06-04T00:04:03;2.70;;;2.05;;
51010;SDS011;37038;50.182;8.624;2023-06-04T00:06:51;2.97;;;2.55;;
51010;SDS011;37038;50.182;8.624;2023-06-04T00:09:39;5.07;;;2.35;;
51010;SDS011;37038;50.182;8.624;2023-06-04T00:12:26;2.75;;;2.00;;
51010;SDS011;37038;50.182;8.624;2023-06-04T00:15:14;9.15;;;2.85;;
51010;SDS011;37038;50.182;8.624;2023-06-04T00:18:03;3.33;;;2.55;;
51010;SDS011;37038;50.182;8.624;2023-06-04T00:20:51;7.07;;;2.60;;
51010;SDS011;37038;50.182;8.624;2023-06-04T00:23:39;5.35;;;2.67;;
51010;SDS011;37038;50.182;8.624;2023-06-04T00:26:26;4.57;;;2.72;;
51010;SDS011;37038;50.182;8.624;2023-06-04T00:29:14;6.13;;;2.90;;
51010;SDS011;37038;50.182;8.624;2023-06-04T00:32:02;6.32;;;2.55;;
51010;SDS011;37038;50.182;8.624;2023-06-04T00:34:51;6.05;;;2.40;;
51010;SDS011;37038;50.182;8.624;2023-06-04T00:37:40;5.60;;;2.50;;
51010;SDS011;37038;50.182;8.624;2023-06-04T00:40:27;5.30;;;2.83;;
51010;SDS011;37038;50.182;8.624;2023-06-04T00:43:15;4.28;;;2.40;;
51010;SDS011;37038;50.182;8.624;2023-06-04T00:46:03;5.18;;;2.90;;
51010;SDS011;37038;50.182;8.624;2023-06-04T00:48:55;2.80;;;2.42;;
51010;SDS011;37038;50.182;8.624;2023-06-04T00:51:44;4.13;;;2.47;;
51010;SDS011;37038;50.182;8.624;2023-06-04T00:54:31;4.22;;;2.45;;
51010;SDS011;37038;50.182;8.624;2023-06-04T00:57:21;3.85;;;2.28;;
51010;SDS011;37038;50.182;8.624;2023-06-04T01:00:09;3.33;;;2.42;;
51010;SDS011;37038;50.182;8.624;2023-06-04T01:02:58;6.57;;;2.70;;
51010;SDS011;37038;50.182;8.624;2023-06-04T01:06:00;8.38;;;2.63;;
51010;SDS011;37038;50.182;8.624;2023-06-04T01:11:57;6.43;;;2.92;;
51010;SDS011;37038;50.182;8.624;2023-06-04T01:14:45;3.70;;;2.53;;
51010;SDS011;37038;50.182;8.624;2023-06-04T01:20:27;2.78;;;2.47;;
51010;SDS011;37038;50.182;8.624;2023-06-04T01:26:23;5.18;;;2.45;;
51010;SDS011;37038;50.182;8.624;2023-06-04T01:29:15;5.05;;;2.42;;
51010;SDS011;37038;50.182;8.624;2023-06-04T01:32:03;4.80;;;2.72;;
51010;SDS011;37038;50.182;8.624;2023-06-04T01:34:52;4.30;;;3.08;;
51010;SDS011;37038;50.182;8.624;2023-06-04T01:37:39;4.90;;;2.55;;
51010;SDS011;37038;50.182;8.624;2023-06-04T01:40:27;3.63;;;2.72;;
51010;SDS011;37038;50.182;8.624;2023-06-04T01:43:16;3.60;;;2.78;;
51010;SDS011;37038;50.182;8.624;2023-06-04T01:46:04;2.45;;;2.25;;
51010;SDS011;37038;50.182;8.624;2023-06-04T01:48:52;4.38;;;2.72;;
51010;SDS011;37038;50.182;8.624;2023-06-04T01:51:40;3.88;;;2.67;;
51010;SDS011;37038;50.182;8.624;2023-06-04T01:54:27;4.45;;;2.78;;
51010;SDS011;37038;50.182;8.624;2023-06-04T01:57:17;7.40;;;2.50;;
51010;SDS011;37038;50.182;8.624;2023-06-04T02:00:07;5.28;;;2.80;;
51010;SDS011;37038;50.182;8.624;2023-06-04T02:02:57;5.28;;;2.60;;
51010;SDS011;37038;50.182;8.624;2023-06-04T02:05:47;6.95;;;2.47;;
51010;SDS011;37038;50.182;8.624;2023-06-04T02:08:35;6.07;;;2.78;;
51010;SDS011;37038;50.182;8.624;2023-06-04T02:11:23;5.13;;;2.70;;
51010;SDS011;37038;50.182;8.624;2023-06-04T02:14:12;4.20;;;2.83;;
51010;SDS011;37038;50.182;8.624;2023-06-04T02:16:59;4.70;;;2.83;;
51010;SDS011;37038;50.182;8.624;2023-06-04T02:19:47;3.90;;;2.40;;
51010;SDS011;37038;50.182;8.624;2023-06-04T02:22:37;5.22;;;2.55;;
51010;SDS011;37038;50.182;8.624;2023-06-04T02:25:25;3.83;;;2.78;;
51010;SDS011;37038;50.182;8.624;2023-06-04T02:28:12;7.97;;;2.70;;
51010;SDS011;37038;50.182;8.624;2023-06-04T02:31:00;4.93;;;2.70;;
51010;SDS011;37038;50.182;8.624;2023-06-04T02:33:48;6.95;;;2.67;;
51010;SDS011;37038;50.182;8.624;2023-06-04T02:36:36;5.75;;;2.70;;
51010;SDS011;37038;50.182;8.624;2023-06-04T02:39:24;3.00;;;2.67;;
51010;SDS011;37038;50.182;8.624;2023-06-04T02:42:12;3.22;;;2.30;;
51010;SDS011;37038;50.182;8.624;2023-06-04T02:44:59;4.15;;;2.72;;
51010;SDS011;37038;50.182;8.624;2023-06-04T02:47:47;6.00;;;2.67;;
51010;SDS011;37038;50.182;8.624;2023-06-04T02:50:36;5.32;;;3.30;;
51010;SDS011;37038;50.182;8.624;2023-06-04T02:53:23;4.40;;;2.45;;
51010;SDS011;37038;50.182;8.624;2023-06-04T02:56:11;2.88;;;2.60;;
51010;SDS011;37038;50.182;8.624;2023-06-04T02:58:59;5.95;;;2.60;;
51010;SDS011;37038;50.182;8.624;2023-06-04T03:01:46;3.53;;;2.63;;
51010;SDS011;37038;50.182;8.624;2023-06-04T03:04:35;6.40;;;3.20;;
51010;SDS011;37038;50.182;8.624;2023-06-04T03:07:23;3.83;;;2.17;;
51010;SDS011;37038;50.182;8.624;2023-06-04T03:10:11;5.10;;;2.80;;
51010;SDS011;37038;50.182;8.624;2023-06-04T03:13:00;4.85;;;2.75;;
51010;SDS011;37038;50.182;8.624;2023-06-04T03:15:48;5.13;;;2.38;;
51010;SDS011;37038;50.182;8.624;2023-06-04T03:18:36;2.90;;;2.45;;
51010;SDS011;37038;50.182;8.624;2023-06-04T03:21:25;4.40;;;2.60;;
51010;SDS011;37038;50.182;8.624;2023-06-04T03:24:12;4.55;;;2.40;;
51010;SDS011;37038;50.182;8.624;2023-06-04T03:27:00;4.70;;;2.70;;
51010;SDS011;37038;50.182;8.624;2023-06-04T03:29:49;6.18;;;2.85;;
51010;SDS011;37038;50.182;8.624;2023-06-04T03:32:36;5.00;;;3.03;;
51010;SDS011;37038;50.182;8.624;2023-06-04T03:35:24;3.50;;;2.55;;
51010;SDS011;37038;50.182;8.624;2023-06-04T03:38:12;5.93;;;2.42;;
51010;SDS011;37038;50.182;8.624;2023-06-04T03:40:59;3.08;;;2.30;;
51010;SDS011;37038;50.182;8.624;2023-06-04T03:43:47;2.92;;;2.70;;
51010;SDS011;37038;50.182;8.624;2023-06-04T03:46:35;4.32;;;3.10;;
51010;SDS011;37038;50.182;8.624;2023-06-04T03:49:23;6.05;;;3.15;;
51010;SDS011;37038;50.182;8.624;2023-06-04T03:52:11;4.63;;;2.83;;
51010;SDS011;37038;50.182;8.624;2023-06-04T03:54:59;5.15;;;3.13;;
51010;SDS011;37038;50.182;8.624;2023-06-04T03:57:47;4.15;;;2.75;;
51010;SDS011;37038;50.182;8.624;2023-06-04T04:00:35;4.70;;;3.22;;
51010;SDS011;37038;50.182;8.624;2023-06-04T04:03:23;5.75;;;3.17;;
51010;SDS011;37038;50.182;8.624;2023-06-04T04:06:11;4.32;;;2.78;;
51010;SDS011;37038;50.182;8.624;2023-06-04T04:08:58;7.57;;;3.33;;
51010;SDS011;37038;50.182;8.624;2023-06-04T04:11:46;6.05;;;3.15;;
51010;SDS011;37038;50.182;8.624;2023-06-04T04:14:34;4.93;;;3.45;;
51010;SDS011;37038;50.182;8.624;2023-06-04T04:17:22;4.68;;;2.75;;
51010;SDS011;37038;50.182;8.624;2023-06-04T04:20:10;3.70;;;2.60;;
51010;SDS011;37038;50.182;8.624;2023-06-04T04:22:58;6.70;;;3.35;;
51010;SDS011;37038;50.182;8.624;2023-06-04T04:25:46;5.55;;;3.28;;
51010;SDS011;37038;50.182;8.624;2023-06-04T04:28:35;4.82;;;3.28;;
51010;SDS011;37038;50.182;8.624;2023-06-04T04:31:24;3.75;;;2.83;;
51010;SDS011;37038;50.182;8.624;2023-06-04T04:34:12;4.85;;;3.13;;
51010;SDS011;37038;50.182;8.624;2023-06-04T04:37:02;6.13;;;2.78;;
51010;SDS011;37038;50.182;8.624;2023-06-04T04:39:50;5.75;;;3.10;;
51010;SDS011;37038;50.182;8.624;2023-06-04T04:42:39;2.80;;;2.60;;
51010;SDS011;37038;50.182;8.624;2023-06-04T04:45:26;5.65;;;3.20;;
51010;SDS011;37038;50.182;8.624;2023-06-04T04:48:14;4.80;;;2.70;;
51010;SDS011;37038;50.182;8.624;2023-06-04T04:51:02;3.45;;;2.83;;
51010;SDS011;37038;50.182;8.624;2023-06-04T04:53:50;5.47;;;3.53;;
51010;SDS011;37038;50.182;8.624;2023-06-04T04:56:38;2.97;;;2.67;;
51010;SDS011;37038;50.182;8.624;2023-06-04T04:59:26;3.35;;;2.38;;
51010;SDS011;37038;50.182;8.624;2023-06-04T05:02:14;6.97;;;2.75;;
51010;SDS011;37038;50.182;8.624;2023-06-04T05:05:03;4.72;;;2.58;;
51010;SDS011;37038;50.182;8.624;2023-06-04T05:07:51;3.65;;;2.70;;
51010;SDS011;37038;50.182;8.624;2023-06-04T05:10:38;3.38;;;2.58;;
51010;SDS011;37038;50.182;8.624;2023-06-04T05:13:26;5.65;;;2.97;;
51010;SDS011;37038;50.182;8.624;2023-06-04T05:16:13;5.25;;;2.45;;
51010;SDS011;37038;50.182;8.624;2023-06-04T05:19:01;2.58;;;2.38;;
51010;SDS011;37038;50.182;8.624;2023-06-04T05:21:49;7.55;;;2.60;;
51010;SDS011;37038;50.182;8.624;2023-06-04T05:24:37;3.83;;;2.47;;
51010;SDS011;37038;50.182;8.624;2023-06-04T05:27:25;3.92;;;2.53;;
51010;SDS011;37038;50.182;8.624;2023-06-04T05:30:13;3.40;;;2.17;;
51010;SDS011;37038;50.182;8.624;2023-06-04T05:33:01;6.13;;;2.70;;
51010;SDS011;37038;50.182;8.624;2023-06-04T05:35:49;5.18;;;2.35;;
51010;SDS011;37038;50.182;8.624;2023-06-04T05:38:39;4.07;;;2.20;;
51010;SDS011;37038;50.182;8.624;2023-06-04T05:41:27;3.35;;;2.40;;
51010;SDS011;37038;50.182;8.624;2023-06-04T05:44:21;2.65;;;2.28;;
51010;SDS011;37038;50.182;8.624;2023-06-04T05:47:11;6.13;;;2.47;;
51010;SDS011;37038;50.182;8.624;2023-06-04T05:50:06;9.30;;;2.47;;
51010;SDS011;37038;50.182;8.624;2023-06-04T05:52:57;4.50;;;2.05;;
51010;SDS011;37038;50.182;8.624;2023-06-04T05:55:53;3.40;;;1.85;;
51010;SDS011;37038;50.182;8.624;2023-06-04T05:58:51;4.70;;;2.00;;
51010;SDS011;37038;50.182;8.624;2023-06-04T06:01:42;4.25;;;2.03;;
51010;SDS011;37038;50.182;8.624;2023-06-04T06:04:31;3.80;;;2.45;;
51010;SDS011;37038;50.182;8.624;2023-06-04T06:07:22;3.70;;;2.20;;
51010;SDS011;37038;50.182;8.624;2023-06-04T06:10:12;3.60;;;2.42;;
51010;SDS011;37038;50.182;8.624;2023-06-04T06:13:03;5.18;;;2.58;;
51010;SDS011;37038;50.182;8.624;2023-06-04T06:15:55;6.72;;;2.10;;
51010;SDS011;37038;50.182;8.624;2023-06-04T06:18:50;3.45;;;2.10;;
51010;SDS011;37038;50.182;8.624;2023-06-04T06:21:45;5.80;;;2.33;;
51010;SDS011;37038;50.182;8.624;2023-06-04T06:24:36;3.15;;;2.00;;
51010;SDS011;37038;50.182;8.624;2023-06-04T06:27:37;3.10;;;2.03;;
51010;SDS011;37038;50.182;8.624;2023-06-04T06:30:30;5.72;;;2.30;;
51010;SDS011;37038;50.182;8.624;2023-06-04T06:33:21;5.68;;;2.05;;
51010;SDS011;37038;50.182;8.624;2023-06-04T06:36:15;6.60;;;2.17;;
51010;SDS011;37038;50.182;8.624;2023-06-04T06:39:10;3.95;;;2.40;;
51010;SDS011;37038;50.182;8.624;2023-06-04T06:42:01;3.20;;;1.95;;
51010;SDS011;37038;50.182;8.624;2023-06-04T06:44:53;3.90;;;1.90;;
51010;SDS011;37038;50.182;8.624;2023-06-04T06:47:44;2.53;;;1.58;;
51010;SDS011;37038;50.182;8.624;2023-06-04T06:50:37;4.57;;;2.20;;
51010;SDS011;37038;50.182;8.624;2023-06-04T06:53:31;4.77;;;1.80;;
51010;SDS011;37038;50.182;8.624;2023-06-04T06:56:21;4.40;;;1.90;;
51010;SDS011;37038;50.182;8.624;2023-06-04T06:59:12;2.63;;;1.92;;
51010;SDS011;37038;50.182;8.624;2023-06-04T07:02:02;2.30;;;1.58;;
51010;SDS011;37038;50.182;8.624;2023-06-04T07:04:51;5.88;;;2.10;;
51010;SDS011;37038;50.182;8.624;2023-06-04T07:07:44;2.35;;;1.75;;
51010;SDS011;37038;50.182;8.624;2023-06-04T07:10:34;2.03;;;1.83;;
51010;SDS011;37038;50.182;8.624;2023-06-04T07:13:27;2.90;;;1.85;;
51010;SDS011;37038;50.182;8.624;2023-06-04T07:16:23;2.13;;;1.55;;
51010;SDS011;37038;50.182;8.624;2023-06-04T07:19:16;4.80;;;1.90;;
51010;SDS011;37038;50.182;8.624;2023-06-04T07:22:06;3.90;;;2.03;;
51010;SDS011;37038;50.182;8.624;2023-06-04T07:24:56;2.80;;;1.40;;
51010;SDS011;37038;50.182;8.624;2023-06-04T07:27:47;4.45;;;1.60;;
51010;SDS011;37038;50.182;8.624;2023-06-04T07:30:41;3.35;;;1.80;;
51010;SDS011;37038;50.182;8.624;2023-06-04T07:33:33;2.95;;;1.52;;
51010;SDS011;37038;50.182;8.624;2023-06-04T07:36:30;1.90;;;1.50;;
51010;SDS011;37038;50.182;8.624;2023-06-04T07:39:21;3.53;;;1.85;;
51010;SDS011;37038;50.182;8.624;2023-06-04T07:42:13;2.20;;;1.67;;
51010;SDS011;37038;50.182;8.624;2023-06-04T07:45:07;1.70;;;1.60;;
51010;SDS011;37038;50.182;8.624;2023-06-04T07:47:58;4.80;;;1.90;;
51010;SDS011;37038;50.182;8.624;2023-06-04T07:50:49;2.97;;;1.63;;
51010;SDS011;37038;50.182;8.624;2023-06-04T07:53:39;2.13;;;1.70;;
51010;SDS011;37038;50.182;8.624;2023-06-04T07:56:33;5.32;;;1.90;;
51010;SDS011;37038;50.182;8.624;2023-06-04T07:59:23;1.95;;;1.55;;
51010;SDS011;37038;50.182;8.624;2023-06-04T08:02:14;4.93;;;1.90;;
51010;SDS011;37038;50.182;8.624;2023-06-04T08:05:05;3.55;;;1.65;;
51010;SDS011;37038;50.182;8.624;2023-06-04T08:07:58;3.75;;;1.80;;
51010;SDS011;37038;50.182;8.624;2023-06-04T08:10:49;2.03;;;1.83;;
51010;SDS011;37038;50.182;8.624;2023-06-04T08:13:39;3.03;;;1.75;;
51010;SDS011;37038;50.182;8.624;2023-06-04T08:16:31;4.05;;;2.00;;
51010;SDS011;37038;50.182;8.624;2023-06-04T08:19:21;2.40;;;1.48;;
51010;SDS011;37038;50.182;8.624;2023-06-04T08:22:11;3.17;;;1.80;;
51010;SDS011;37038;50.182;8.624;2023-06-04T08:25:01;4.00;;;2.13;;
51010;SDS011;37038;50.182;8.624;2023-06-04T08:27:51;3.13;;;2.35;;
51010;SDS011;37038;50.182;8.624;2023-06-04T08:30:44;5.63;;;1.90;;
51010;SDS011;37038;50.182;8.624;2023-06-04T08:33:33;4.85;;;2.00;;
51010;SDS011;37038;50.182;8.624;2023-06-04T08:36:26;4.47;;;1.98;;
51010;SDS011;37038;50.182;8.624;2023-06-04T08:39:16;3.53;;;1.60;;
51010;SDS011;37038;50.182;8.624;2023-06-04T08:42:10;2.17;;;1.70;;
51010;SDS011;37038;50.182;8.624;2023-06-04T08:45:18;2.88;;;1.70;;
51010;SDS011;37038;50.182;8.624;2023-06-04T08:48:12;4.63;;;1.75;;
51010;SDS011;37038;50.182;8.624;2023-06-04T08:51:05;2.50;;;1.50;;
51010;SDS011;37038;50.182;8.624;2023-06-04T08:53:59;5.13;;;1.92;;
51010;SDS011;37038;50.182;8.624;2023-06-04T08:56:50;2.80;;;1.42;;
51010;SDS011;37038;50.182;8.624;2023-06-04T08:59:40;1.90;;;1.48;;
51010;SDS011;37038;50.182;8.624;2023-06-04T09:02:32;3.53;;;1.80;;
51010;SDS011;37038;50.182;8.624;2023-06-04T09:05:25;2.25;;;1.60;;
51010;SDS011;37038;50.182;8.624;2023-06-04T09:08:16;2.63;;;1.73;;
51010;SDS011;37038;50.182;8.624;2023-06-04T09:11:10;5.03;;;1.58;;
51010;SDS011;37038;50.182;8.624;2023-06-04T09:14:03;3.28;;;1.80;;
51010;SDS011;37038;50.182;8.624;2023-06-04T09:16:58;8.60;;;1.90;;
51010;SDS011;37038;50.182;8.624;2023-06-04T09:19:48;1.48;;;1.33;;
51010;SDS011;37038;50.182;8.624;2023-06-04T09:22:39;4.07;;;1.80;;
51010;SDS011;37038;50.182;8.624;2023-06-04T09:25:29;3.67;;;1.70;;
51010;SDS011;37038;50.182;8.624;2023-06-04T09:28:21;3.42;;;1.98;;
51010;SDS011;37038;50.182;8.624;2023-06-04T09:31:18;2.08;;;1.58;;
51010;SDS011;37038;50.182;8.624;2023-06-04T09:34:17;3.65;;;1.60;;
51010;SDS011;37038;50.182;8.624;2023-06-04T09:37:17;4.80;;;1.73;;
51010;SDS011;37038;50.182;8.624;2023-06-04T09:40:09;3.28;;;1.88;;
51010;SDS011;37038;50.182;8.624;2023-06-04T09:43:01;2.33;;;1.80;;
51010;SDS011;37038;50.182;8.624;2023-06-04T09:45:51;3.95;;;1.55;;
51010;SDS011;37038;50.182;8.624;2023-06-04T09:48:42;2.13;;;1.65;;
51010;SDS011;37038;50.182;8.624;2023-06-04T09:51:33;3.95;;;1.98;;
51010;SDS011;37038;50.182;8.624;2023-06-04T09:54:35;2.38;;;1.80;;
51010;SDS011;37038;50.182;8.624;2023-06-04T09:57:31;1.55;;;1.45;;
51010;SDS011;37038;50.182;8.624;2023-06-04T10:00:24;2.78;;;1.80;;
51010;SDS011;37038;50.182;8.624;2023-06-04T10:03:16;6.65;;;1.75;;
51010;SDS011;37038;50.182;8.624;2023-06-04T10:06:11;4.30;;;1.60;;
51010;SDS011;37038;50.182;8.624;2023-06-04T10:09:08;5.38;;;1.50;;
51010;SDS011;37038;50.182;8.624;2023-06-04T10:12:04;2.63;;;1.55;;
51010;SDS011;37038;50.182;8.624;2023-06-04T10:15:10;1.70;;;1.40;;
51010;SDS011;37038;50.182;8.624;2023-06-04T10:18:15;1.60;;;1.50;;
51010;SDS011;37038;50.182;8.624;2023-06-04T10:21:06;2.83;;;1.60;;
51010;SDS011;37038;50.182;8.624;2023-06-04T10:24:07;4.13;;;1.60;;
51010;SDS011;37038;50.182;8.624;2023-06-04T10:27:00;2.50;;;1.25;;
51010;SDS011;37038;50.182;8.624;2023-06-04T10:30:00;3.35;;;1.50;;
51010;SDS011;37038;50.182;8.624;2023-06-04T10:32:55;2.05;;;1.60;;
51010;SDS011;37038;50.182;8.624;2023-06-04T10:35:48;3.50;;;1.50;;
51010;SDS011;37038;50.182;8.624;2023-06-04T10:38:44;2.78;;;1.40;;
51010;SDS011;37038;50.182;8.624;2023-06-04T10:41:37;2.67;;;1.38;;
51010;SDS011;37038;50.182;8.624;2023-06-04T10:44:29;6.35;;;1.92;;
51010;SDS011;37038;50.182;8.624;2023-06-04T10:47:26;1.77;;;1.35;;
51010;SDS011;37038;50.182;8.624;2023-06-04T10:50:21;3.00;;;2.00;;
51010;SDS011;37038;50.182;8.624;2023-06-04T10:53:11;4.35;;;1.70;;
51010;SDS011;37038;50.182;8.624;2023-06-04T10:56:03;3.43;;;1.53;;
51010;SDS011;37038;50.182;8.624;2023-06-04T10:58:53;2.33;;;1.35;;
51010;SDS011;37038;50.182;8.624;2023-06-04T11:01:46;3.17;;;1.60;;
51010;SDS011;37038;50.182;8.624;2023-06-04T11:04:36;1.75;;;1.52;;
51010;SDS011;37038;50.182;8.624;2023-06-04T11:07:26;1.63;;;1.15;;
51010;SDS011;37038;50.182;8.624;2023-06-04T11:10:34;3.38;;;1.65;;
51010;SDS011;37038;50.182;8.624;2023-06-04T11:13:27;2.85;;;1.40;;
51010;SDS011;37038;50.182;8.624;2023-06-04T11:16:20;1.83;;;1.73;;
51010;SDS011;37038;50.182;8.624;2023-06-04T11:19:12;3.45;;;1.70;;
51010;SDS011;37038;50.182;8.624;2023-06-04T11:22:05;2.13;;;1.35;;
51010;SDS011;37038;50.182;8.624;2023-06-04T11:24:56;4.68;;;1.75;;
51010;SDS011;37038;50.182;8.624;2023-06-04T11:27:48;1.90;;;1.45;;
51010;SDS011;37038;50.182;8.624;2023-06-04T11:30:42;2.53;;;1.65;;
51010;SDS011;37038;50.182;8.624;2023-06-04T11:33:46;3.23;;;1.80;;
51010;SDS011;37038;50.182;8.624;2023-06-04T11:36:36;2.97;;;1.67;;
51010;SDS011;37038;50.182;8.624;2023-06-04T11:39:33;1.45;;;1.35;;
51010;SDS011;37038;50.182;8.624;2023-06-04T11:42:27;2.08;;;1.70;;
51010;SDS011;37038;50.182;8.624;2023-06-04T11:45:21;3.10;;;1.85;;
51010;SDS011;37038;50.182;8.624;2023-06-04T11:48:12;1.63;;;1.38;;
51010;SDS011;37038;50.182;8.624;2023-06-04T11:51:06;2.13;;;1.52;;
51010;SDS011;37038;50.182;8.624;2023-06-04T11:53:59;4.35;;;1.60;;
51010;SDS011;37038;50.182;8.624;2023-06-04T11:56:50;3.55;;;1.30;;
51010;SDS011;37038;50.182;8.624;2023-06-04T11:59:41;2.10;;;1.90;;
51010;SDS011;37038;50.182;8.624;2023-06-04T12:02:31;1.98;;;1.60;;
51010;SDS011;37038;50.182;8.624;2023-06-04T12:05:21;3.05;;;1.55;;
51010;SDS011;37038;50.182;8.624;2023-06-04T12:08:11;4.07;;;1.58;;
51010;SDS011;37038;50.182;8.624;2023-06-04T12:11:04;3.50;;;1.85;;
51010;SDS011;37038;50.182;8.624;2023-06-04T12:13:55;4.13;;;1.67;;
51010;SDS011;37038;50.182;8.624;2023-06-04T12:16:54;4.85;;;1.90;;
51010;SDS011;37038;50.182;8.624;2023-06-04T12:19:54;4.85;;;1.73;;
51010;SDS011;37038;50.182;8.624;2023-06-04T12:22:46;2.10;;;2.00;;
51010;SDS011;37038;50.182;8.624;2023-06-04T12:25:36;5.93;;;1.90;;
51010;SDS011;37038;50.182;8.624;2023-06-04T12:28:26;2.45;;;1.95;;
51010;SDS011;37038;50.182;8.624;2023-06-04T12:31:15;2.58;;;1.75;;
51010;SDS011;37038;50.182;8.624;2023-06-04T12:34:07;2.83;;;1.52;;
51010;SDS011;37038;50.182;8.624;2023-06-04T12:36:58;4.60;;;1.95;;
51010;SDS011;37038;50.182;8.624;2023-06-04T12:39:50;1.65;;;1.50;;
51010;SDS011;37038;50.182;8.624;2023-06-04T12:42:42;5.60;;;1.33;;
51010;SDS011;37038;50.182;8.624;2023-06-04T12:45:32;1.80;;;1.60;;
51010;SDS011;37038;50.182;8.624;2023-06-04T12:48:23;4.43;;;1.48;;
51010;SDS011;37038;50.182;8.624;2023-06-04T12:51:13;6.18;;;1.77;;
51010;SDS011;37038;50.182;8.624;2023-06-04T12:54:06;3.05;;;1.70;;
51010;SDS011;37038;50.182;8.624;2023-06-04T12:56:58;1.52;;;1.42;;
51010;SDS011;37038;50.182;8.624;2023-06-04T12:59:48;2.05;;;1.33;;
51010;SDS011;37038;50.182;8.624;2023-06-04T13:02:38;2.38;;;1.35;;
51010;SDS011;37038;50.182;8.624;2023-06-04T13:05:29;3.92;;;1.30;;
51010;SDS011;37038;50.182;8.624;2023-06-04T13:08:18;2.00;;;1.40;;
51010;SDS011;37038;50.182;8.624;2023-06-04T13:11:11;1.77;;;1.42;;
51010;SDS011;37038;50.182;8.624;2023-06-04T13:14:02;2.33;;;1.42;;
51010;SDS011;37038;50.182;8.624;2023-06-04T13:16:52;1.77;;;1.58;;
51010;SDS011;37038;50.182;8.624;2023-06-04T13:19:46;1.63;;;1.48;;
51010;SDS011;37038;50.182;8.624;2023-06-04T13:22:38;3.08;;;1.65;;
51010;SDS011;37038;50.182;8.624;2023-06-04T13:25:32;2.35;;;1.60;;
51010;SDS011;37038;50.182;8.624;2023-06-04T13:28:21;5.85;;;1.65;;
51010;SDS011;37038;50.182;8.624;2023-06-04T13:31:11;2.47;;;1.42;;
51010;SDS011;37038;50.182;8.624;2023-06-04T13:34:01;2.55;;;1.60;;
51010;SDS011;37038;50.182;8.624;2023-06-04T13:37:12;2.63;;;2.38;;
51010;SDS011;37038;50.182;8.624;2023-06-04T13:40:04;2.40;;;1.90;;
51010;SDS011;37038;50.182;8.624;2023-06-04T13:42:55;2.60;;;2.03;;
51010;SDS011;37038;50.182;8.624;2023-06-04T13:45:45;1.63;;;1.52;;
51010;SDS011;37038;50.182;8.624;2023-06-04T13:48:35;1.73;;;1.50;;
51010;SDS011;37038;50.182;8.624;2023-06-04T13:51:26;2.38;;;1.48;;
51010;SDS011;37038;50.182;8.624;2023-06-04T13:54:18;3.55;;;1.63;;
51010;SDS011;37038;50.182;8.624;2023-06-04T13:57:09;1.75;;;1.63;;
51010;SDS011;37038;50.182;8.624;2023-06-04T14:00:00;3.60;;;1.55;;
51010;SDS011;37038;50.182;8.624;2023-06-04T14:02:53;5.78;;;1.80;;
51010;SDS011;37038;50.182;8.624;2023-06-04T14:05:44;1.65;;;1.50;;
51010;SDS011;37038;50.182;8.624;2023-06-04T14:08:36;2.65;;;1.50;;
51010;SDS011;37038;50.182;8.624;2023-06-04T14:11:28;1.92;;;1.60;;
51010;SDS011;37038;50.182;8.624;2023-06-04T14:14:22;3.25;;;1.65;;
51010;SDS011;37038;50.182;8.624;2023-06-04T14:17:13;2.13;;;1.45;;
51010;SDS011;37038;50.182;8.624;2023-06-04T14:20:04;3.25;;;2.00;;
51010;SDS011;37038;50.182;8.624;2023-06-04T14:22:57;3.67;;;1.80;;
51010;SDS011;37038;50.182;8.624;2023-06-04T14:25:48;3.65;;;2.03;;
51010;SDS011;37038;50.182;8.624;2023-06-04T14:28:38;3.92;;;1.92;;
51010;SDS011;37038;50.182;8.624;2023-06-04T14:31:29;2.38;;;1.50;;
51010;SDS011;37038;50.182;8.624;2023-06-04T14:34:20;4.00;;;1.90;;
51010;SDS011;37038;50.182;8.624;2023-06-04T14:37:10;2.25;;;2.05;;
51010;SDS011;37038;50.182;8.624;2023-06-04T14:40:00;2.35;;;1.90;;
51010;SDS011;37038;50.182;8.624;2023-06-04T14:42:53;4.05;;;1.63;;
51010;SDS011;37038;50.182;8.624;2023-06-04T14:45:43;4.60;;;1.85;;
51010;SDS011;37038;50.182;8.624;2023-06-04T14:48:36;3.25;;;2.13;;
51010;SDS011;37038;50.182;8.624;2023-06-04T14:51:27;2.92;;;1.73;;
51010;SDS011;37038;50.182;8.624;2023-06-04T14:54:18;2.45;;;2.15;;
51010;SDS011;37038;50.182;8.624;2023-06-04T14:57:08;3.78;;;2.03;;
51010;SDS011;37038;50.182;8.624;2023-06-04T15:00:00;2.67;;;2.05;;
51010;SDS011;37038;50.182;8.624;2023-06-04T15:02:50;2.40;;;2.20;;
51010;SDS011;37038;50.182;8.624;2023-06-04T15:05:40;5.18;;;2.30;;
51010;SDS011;37038;50.182;8.624;2023-06-04T15:08:30;6.03;;;2.38;;
51010;SDS011;37038;50.182;8.624;2023-06-04T15:11:21;3.60;;;2.30;;
51010;SDS011;37038;50.182;8.624;2023-06-04T15:14:13;2.75;;;2.30;;
51010;SDS011;37038;50.182;8.624;2023-06-04T15:17:03;3.30;;;2.92;;
51010;SDS011;37038;50.182;8.624;2023-06-04T15:19:54;2.70;;;2.50;;
51010;SDS011;37038;50.182;8.624;2023-06-04T15:22:44;5.63;;;2.10;;
51010;SDS011;37038;50.182;8.624;2023-06-04T15:25:35;2.78;;;2.45;;
51010;SDS011;37038;50.182;8.624;2023-06-04T15:28:28;6.15;;;2.60;;
51010;SDS011;37038;50.182;8.624;2023-06-04T15:31:18;3.03;;;2.70;;
51010;SDS011;37038;50.182;8.624;2023-06-04T15:34:09;3.30;;;2.70;;
51010;SDS011;37038;50.182;8.624;2023-06-04T15:37:02;3.53;;;2.67;;
51010;SDS011;37038;50.182;8.624;2023-06-04T15:39:52;3.42;;;2.53;;
51010;SDS011;37038;50.182;8.624;2023-06-04T15:42:41;3.22;;;2.75;;
51010;SDS011;37038;50.182;8.624;2023-06-04T15:48:50;3.20;;;2.90;;
51010;SDS011;37038;50.182;8.624;2023-06-04T15:51:40;4.05;;;2.92;;
51010;SDS011;37038;50.182;8.624;2023-06-04T15:54:42;11.23;;;3.85;;
51010;SDS011;37038;50.182;8.624;2023-06-04T15:57:36;3.25;;;2.95;;
51010;SDS011;37038;50.182;8.624;2023-06-04T16:00:26;9.65;;;3.70;;
51010;SDS011;37038;50.182;8.624;2023-06-04T16:03:18;4.05;;;3.13;;
51010;SDS011;37038;50.182;8.624;2023-06-04T16:06:08;4.55;;;3.28;;
51010;SDS011;37038;50.182;8.624;2023-06-04T16:09:00;6.65;;;4.05;;
51010;SDS011;37038;50.182;8.624;2023-06-04T16:11:51;3.67;;;3.38;;
51010;SDS011;37038;50.182;8.624;2023-06-04T16:14:43;5.72;;;3.80;;
51010;SDS011;37038;50.182;8.624;2023-06-04T16:17:33;30.45;;;4.38;;
51010;SDS011;37038;50.182;8.624;2023-06-04T16:20:23;6.13;;;4.40;;
51010;SDS011;37038;50.182;8.624;2023-06-04T16:23:13;7.38;;;3.70;;
51010;SDS011;37038;50.182;8.624;2023-06-04T16:26:03;3.83;;;3.42;;
51010;SDS011;37038;50.182;8.624;2023-06-04T16:28:55;3.45;;;3.20;;
51010;SDS011;37038;50.182;8.624;2023-06-04T16:31:44;5.32;;;3.42;;
51010;SDS011;37038;50.182;8.624;2023-06-04T16:34:34;4.93;;;3.65;;
51010;SDS011;37038;50.182;8.624;2023-06-04T16:37:24;6.78;;;3.55;;
51010;SDS011;37038;50.182;8.624;2023-06-04T16:40:14;3.45;;;2.72;;
51010;SDS011;37038;50.182;8.624;2023-06-04T16:43:06;4.47;;;3.00;;
51010;SDS011;37038;50.182;8.624;2023-06-04T16:46:03;11.43;;;3.38;;
51010;SDS011;37038;50.182;8.624;2023-06-04T16:48:52;2.92;;;2.67;;
51010;SDS011;37038;50.182;8.624;2023-06-04T16:51:44;3.42;;;3.13;;
51010;SDS011;37038;50.182;8.624;2023-06-04T16:54:33;3.67;;;3.35;;
51010;SDS011;37038;50.182;8.624;2023-06-04T16:57:23;3.70;;;2.75;;
51010;SDS011;37038;50.182;8.624;2023-06-04T17:00:13;4.78;;;3.22;;
51010;SDS011;37038;50.182;8.624;2023-06-04T17:03:13;3.35;;;2.60;;
51010;SDS011;37038;50.182;8.624;2023-06-04T17:06:03;4.07;;;2.83;;
51010;SDS011;37038;50.182;8.624;2023-06-04T17:08:55;2.65;;;2.22;;
51010;SDS011;37038;50.182;8.624;2023-06-04T17:11:56;5.65;;;2.97;;
51010;SDS011;37038;50.182;8.624;2023-06-04T17:14:45;6.93;;;2.40;;
51010;SDS011;37038;50.182;8.624;2023-06-04T17:17:34;3.30;;;2.13;;
51010;SDS011;37038;50.182;8.624;2023-06-04T17:20:24;5.20;;;2.50;;
51010;SDS011;37038;50.182;8.624;2023-06-04T17:23:20;3.35;;;2.28;;